Time;durP1;ratioP1;P1;durP2;ratioP2;P2;SDS_P1;SDS_P2;PMS_P1;PMS_P2;Temp;Humidity;BMP_temperature;BMP_pressure;BME280_temperature;BME280_humidity;BME280_pressure;Samples;Min_cycle;Max_cycle;Signal;HPM_P1;HPM_P2
2023/10/08 00:00:39;;;;;;;13.43;6.13;;;;;;;;;;5192216;27;20104;-71
2023/10/08 00:03:05;;;;;;;8.57;4.78;;;;;;;;;;5190478;27;20025;-71
2023/10/08 00:05:51;;;;;;;12.90;5.47;;;;;;;;;;5180738;27;20014;-72
2023/10/08 00:08:36;;;;;;;12.38;5.35;;;;;;;;;;5161216;27;20030;-72
2023/10/08 00:11:22;;;;;;;10.65;5.47;;;;;;;;;;5176646;27;20029;-71
2023/10/08 00:14:17;;;;;;;11.65;5.30;;;;;;;;;;5162464;27;20019;-71
2023/10/08 00:17:04;;;;;;;10.38;5.10;;;;;;;;;;5160669;27;20022;-73
2023/10/08 00:19:52;;;;;;;13.75;5.28;;;;;;;;;;5160899;27;20087;-72
2023/10/08 00:22:38;;;;;;;11.18;5.22;;;;;;;;;;5176829;27;20018;-72
2023/10/08 00:25:24;;;;;;;11.68;5.15;;;;;;;;;;5176094;27;20022;-72
2023/10/08 00:28:13;;;;;;;11.57;5.00;;;;;;;;;;5162235;27;20018;-72
2023/10/08 00:31:06;;;;;;;12.18;5.13;;;;;;;;;;5160199;27;20018;-71
2023/10/08 00:33:52;;;;;;;13.95;5.32;;;;;;;;;;5161046;27;20365;-71
2023/10/08 00:36:38;;;;;;;13.48;5.75;;;;;;;;;;5175132;27;20022;-71
2023/10/08 00:39:24;;;;;;;14.52;5.32;;;;;;;;;;5176476;27;20038;-71
2023/10/08 00:42:12;;;;;;;22.77;5.72;;;;;;;;;;5177019;27;20082;-71
2023/10/08 00:45:00;;;;;;;16.60;5.72;;;;;;;;;;5160752;27;20046;-72
2023/10/08 00:47:47;;;;;;;11.25;5.70;;;;;;;;;;5177197;27;20022;-72
2023/10/08 00:50:42;;;;;;;17.10;5.50;;;;;;;;;;5133352;27;20474;-72
2023/10/08 00:53:28;;;;;;;13.88;5.28;;;;;;;;;;5134488;27;20027;-72
2023/10/08 00:56:18;;;;;;;11.48;5.75;;;;;;;;;;5133551;27;20050;-72
2023/10/08 00:59:06;;;;;;;12.85;6.40;;;;;;;;;;5133737;27;20015;-70
2023/10/08 01:01:58;;;;;;;14.10;5.82;;;;;;;;;;5134192;28;20030;-71
2023/10/08 01:04:44;;;;;;;10.50;5.47;;;;;;;;;;5132570;28;20014;-71
2023/10/08 01:07:30;;;;;;;9.65;5.65;;;;;;;;;;5136150;28;20023;-71
2023/10/08 01:10:20;;;;;;;14.50;5.57;;;;;;;;;;5132877;28;20027;-71
2023/10/08 01:13:11;;;;;;;13.32;5.53;;;;;;;;;;5133530;28;20034;-71
2023/10/08 01:15:58;;;;;;;23.50;7.40;;;;;;;;;;5134096;28;20019;-71
2023/10/08 01:18:49;;;;;;;13.38;5.88;;;;;;;;;;5133405;28;20015;-71
2023/10/08 01:21:37;;;;;;;12.75;6.55;;;;;;;;;;5134171;28;20011;-72
2023/10/08 01:24:24;;;;;;;10.63;6.30;;;;;;;;;;5133748;28;20022;-71
2023/10/08 01:27:11;;;;;;;14.32;6.20;;;;;;;;;;5133565;28;20023;-73
2023/10/08 01:30:08;;;;;;;11.23;5.78;;;;;;;;;;5133903;28;20023;-71
2023/10/08 01:32:54;;;;;;;11.20;5.93;;;;;;;;;;5134045;28;20027;-71
2023/10/08 01:35:40;;;;;;;13.45;6.13;;;;;;;;;;5133818;28;20461;-72
2023/10/08 01:38:27;;;;;;;13.20;6.18;;;;;;;;;;5133311;28;20023;-71
2023/10/08 01:41:19;;;;;;;13.73;6.72;;;;;;;;;;5133763;28;20091;-71
2023/10/08 01:44:08;;;;;;;20.08;6.93;;;;;;;;;;5132327;28;20030;-71
2023/10/08 01:46:57;;;;;;;11.18;6.07;;;;;;;;;;5134647;28;20109;-72
2023/10/08 01:49:46;;;;;;;10.32;6.43;;;;;;;;;;5164901;27;20484;-72
2023/10/08 01:52:31;;;;;;;11.18;5.70;;;;;;;;;;5178954;27;20061;-72
2023/10/08 01:55:18;;;;;;;12.52;5.75;;;;;;;;;;5164272;27;20042;-72
2023/10/08 01:58:04;;;;;;;13.82;6.03;;;;;;;;;;5164689;27;20023;-72
2023/10/08 02:00:49;;;;;;;8.63;5.13;;;;;;;;;;5179757;27;20022;-72
2023/10/08 02:03:37;;;;;;;11.38;5.70;;;;;;;;;;5179501;27;20110;-72
2023/10/08 02:06:23;;;;;;;12.70;6.00;;;;;;;;;;5180330;27;20033;-72
2023/10/08 02:09:09;;;;;;;12.35;6.70;;;;;;;;;;5178875;27;20050;-72
2023/10/08 02:11:55;;;;;;;9.15;5.78;;;;;;;;;;5164268;27;20034;-72
2023/10/08 02:14:41;;;;;;;13.82;6.30;;;;;;;;;;5179219;27;20412;-72
2023/10/08 02:17:28;;;;;;;13.00;6.45;;;;;;;;;;5164824;27;20026;-72
2023/10/08 02:20:16;;;;;;;11.38;6.07;;;;;;;;;;5178302;27;20010;-71
2023/10/08 02:23:01;;;;;;;15.63;6.38;;;;;;;;;;5164321;27;20344;-71
2023/10/08 02:25:47;;;;;;;13.68;6.70;;;;;;;;;;5178228;27;20106;-71
2023/10/08 02:28:33;;;;;;;12.55;6.32;;;;;;;;;;5179264;27;20022;-72
2023/10/08 02:31:19;;;;;;;11.45;6.40;;;;;;;;;;5162856;27;20042;-72
2023/10/08 02:34:07;;;;;;;14.10;6.22;;;;;;;;;;5163375;27;20432;-72
2023/10/08 02:36:55;;;;;;;12.40;6.30;;;;;;;;;;5163363;27;20409;-71
2023/10/08 02:39:40;;;;;;;10.60;5.90;;;;;;;;;;5177967;27;20014;-71
2023/10/08 02:42:26;;;;;;;12.43;5.97;;;;;;;;;;5178540;27;20014;-72
2023/10/08 02:45:13;;;;;;;12.48;6.38;;;;;;;;;;5163920;27;20380;-72
2023/10/08 02:47:59;;;;;;;11.07;5.97;;;;;;;;;;5163245;27;20108;-72
2023/10/08 02:50:47;;;;;;;12.60;5.95;;;;;;;;;;5179626;27;20053;-72
2023/10/08 02:53:33;;;;;;;12.02;5.53;;;;;;;;;;5179656;27;20050;-72
2023/10/08 02:56:19;;;;;;;9.73;5.68;;;;;;;;;;5178749;27;20482;-73
2023/10/08 02:59:05;;;;;;;12.65;5.88;;;;;;;;;;5177595;27;20351;-71
2023/10/08 03:01:55;;;;;;;12.65;6.20;;;;;;;;;;5178193;27;20022;-71
2023/10/08 03:04:45;;;;;;;11.13;5.65;;;;;;;;;;5177850;27;20026;-71
2023/10/08 03:07:35;;;;;;;11.73;6.00;;;;;;;;;;5177713;27;20018;-72
2023/10/08 03:10:22;;;;;;;11.40;6.35;;;;;;;;;;5177724;27;20026;-71
2023/10/08 03:13:09;;;;;;;11.93;6.32;;;;;;;;;;5162115;27;20014;-71
2023/10/08 03:18:50;;;;;;;9.65;5.70;;;;;;;;;;5177997;27;20022;-72
2023/10/08 03:24:48;;;;;;;13.57;6.25;;;;;;;;;;5183238;27;20015;-72
2023/10/08 03:27:30;;;;;;;13.55;6.28;;;;;;;;;;5182330;27;20034;-72
2023/10/08 03:30:20;;;;;;;12.40;6.40;;;;;;;;;;5180799;27;20461;-72
2023/10/08 03:33:10;;;;;;;11.52;6.25;;;;;;;;;;5177266;27;20030;-73
2023/10/08 03:35:56;;;;;;;11.98;6.03;;;;;;;;;;5176748;27;20117;-71
2023/10/08 03:38:44;;;;;;;12.27;6.47;;;;;;;;;;5176953;27;20335;-72
2023/10/08 03:41:30;;;;;;;12.90;6.00;;;;;;;;;;5161529;27;20018;-72
2023/10/08 03:44:16;;;;;;;12.98;6.43;;;;;;;;;;5162676;27;20058;-72
2023/10/08 03:47:10;;;;;;;15.38;7.28;;;;;;;;;;5162290;27;20022;-72
2023/10/08 03:49:55;;;;;;;14.48;7.38;;;;;;;;;;5161635;27;20038;-72
2023/10/08 03:52:43;;;;;;;10.43;6.60;;;;;;;;;;5177640;27;20097;-72
2023/10/08 03:55:34;;;;;;;13.48;6.95;;;;;;;;;;5177247;27;20086;-71
2023/10/08 03:58:29;;;;;;;14.63;7.13;;;;;;;;;;5176969;27;20014;-72
2023/10/08 04:01:19;;;;;;;9.32;5.88;;;;;;;;;;5176655;27;20015;-72
2023/10/08 04:04:04;;;;;;;18.90;6.35;;;;;;;;;;5177502;27;20028;-72
2023/10/08 04:06:51;;;;;;;11.25;5.72;;;;;;;;;;5177263;27;20079;-71
2023/10/08 04:09:39;;;;;;;16.75;6.05;;;;;;;;;;5177436;27;20173;-72
2023/10/08 04:12:27;;;;;;;15.88;6.97;;;;;;;;;;5175692;27;20033;-71
2023/10/08 04:15:16;;;;;;;19.67;6.60;;;;;;;;;;5176779;27;20022;-71
2023/10/08 04:18:02;;;;;;;15.40;7.35;;;;;;;;;;5176013;27;20018;-72
2023/10/08 04:21:00;;;;;;;11.10;6.70;;;;;;;;;;5184994;27;20018;-71
2023/10/08 04:23:51;;;;;;;16.15;7.25;;;;;;;;;;5186487;27;20030;-70
2023/10/08 04:26:39;;;;;;;12.85;6.50;;;;;;;;;;5168009;27;20018;-72
2023/10/08 04:29:25;;;;;;;16.70;6.60;;;;;;;;;;5179910;27;20108;-72
2023/10/08 04:32:22;;;;;;;13.25;6.55;;;;;;;;;;5179290;27;20030;-71
2023/10/08 04:35:14;;;;;;;14.40;6.45;;;;;;;;;;5177704;27;20050;-71
2023/10/08 04:38:00;;;;;;;10.48;6.55;;;;;;;;;;5176469;27;20419;-72
2023/10/08 04:40:48;;;;;;;10.90;6.05;;;;;;;;;;5176370;27;20379;-71
2023/10/08 04:43:37;;;;;;;11.07;6.20;;;;;;;;;;5176623;27;20019;-71
2023/10/08 04:49:30;;;;;;;10.65;5.95;;;;;;;;;;5175914;27;20053;-72
2023/10/08 04:52:15;;;;;;;13.98;6.43;;;;;;;;;;5161760;27;20033;-72
2023/10/08 04:55:15;;;;;;;11.05;6.22;;;;;;;;;;5176379;27;20328;-72
2023/10/08 04:58:04;;;;;;;13.30;6.35;;;;;;;;;;5176416;27;20352;-72
2023/10/08 05:00:59;;;;;;;14.73;6.85;;;;;;;;;;5161138;27;20463;-72
2023/10/08 05:09:51;;;;;;;13.15;6.40;;;;;;;;;;5176095;27;20105;-71
2023/10/08 05:12:38;;;;;;;14.25;7.20;;;;;;;;;;5175698;27;20041;-71
2023/10/08 05:15:33;;;;;;;18.42;7.30;;;;;;;;;;5174823;27;20022;-72
2023/10/08 05:21:25;;;;;;;13.65;8.60;;;;;;;;;;5176076;27;20073;-72
2023/10/08 05:24:13;;;;;;;17.52;9.13;;;;;;;;;;5166763;27;20014;-73
2023/10/08 05:27:37;;;;;;;15.63;8.32;;;;;;;;;;5180192;27;20101;-72
2023/10/08 05:30:25;;;;;;;16.95;8.13;;;;;;;;;;5179682;27;20062;-72
2023/10/08 05:36:18;;;;;;;15.15;7.40;;;;;;;;;;5179763;27;20075;-72
2023/10/08 05:42:20;;;;;;;20.35;9.05;;;;;;;;;;5179908;27;20015;-72
2023/10/08 05:51:13;;;;;;;16.75;7.53;;;;;;;;;;5179608;27;20133;-72
2023/10/08 05:53:59;;;;;;;14.73;7.82;;;;;;;;;;5180284;27;20050;-72
2023/10/08 05:57:05;;;;;;;15.48;7.70;;;;;;;;;;5164345;27;20035;-71
2023/10/08 06:05:43;;;;;;;15.77;8.20;;;;;;;;;;5179018;27;20101;-72
2023/10/08 06:08:48;;;;;;;14.30;8.13;;;;;;;;;;5163818;27;20010;-72
2023/10/08 06:17:44;;;;;;;19.42;8.63;;;;;;;;;;5179229;27;20470;-72
2023/10/08 06:20:30;;;;;;;16.67;8.70;;;;;;;;;;5179226;27;20018;-72
2023/10/08 06:23:18;;;;;;;14.00;8.40;;;;;;;;;;5177460;27;20109;-72
2023/10/08 06:28:57;;;;;;;19.75;8.60;;;;;;;;;;5179312;27;20395;-72
2023/10/08 06:31:50;;;;;;;18.70;8.45;;;;;;;;;;5177644;27;20336;-73
2023/10/08 06:34:36;;;;;;;16.77;8.55;;;;;;;;;;5176753;27;20117;-72
2023/10/08 06:37:21;;;;;;;14.02;8.20;;;;;;;;;;5162871;27;20022;-72
2023/10/08 06:40:30;;;;;;;14.95;7.90;;;;;;;;;;5178650;27;20087;-72
2023/10/08 06:43:16;;;;;;;21.48;7.88;;;;;;;;;;5177888;27;20045;-72
2023/10/08 06:46:03;;;;;;;17.92;8.45;;;;;;;;;;5163997;27;20022;-73
2023/10/08 06:48:49;;;;;;;25.42;8.57;;;;;;;;;;5177813;27;20121;-73
2023/10/08 06:51:35;;;;;;;16.95;8.00;;;;;;;;;;5177532;27;20454;-72
2023/10/08 06:54:22;;;;;;;16.10;8.23;;;;;;;;;;5177862;27;20026;-73
2023/10/08 06:57:13;;;;;;;18.25;7.57;;;;;;;;;;5178550;27;20022;-74
2023/10/08 06:59:59;;;;;;;31.77;9.32;;;;;;;;;;5179026;27;20474;-74
2023/10/08 07:02:47;;;;;;;19.70;8.13;;;;;;;;;;5178621;27;20389;-73
2023/10/08 07:05:40;;;;;;;22.65;8.13;;;;;;;;;;5179063;27;20024;-72
2023/10/08 07:08:29;;;;;;;15.77;8.27;;;;;;;;;;5178860;27;20019;-72
2023/10/08 07:11:17;;;;;;;14.73;7.50;;;;;;;;;;5177887;27;20484;-71
2023/10/08 07:14:04;;;;;;;23.48;7.78;;;;;;;;;;5176855;27;20053;-72
2023/10/08 07:16:52;;;;;;;24.77;7.45;;;;;;;;;;5162786;27;20137;-73
2023/10/08 07:19:38;;;;;;;32.45;8.32;;;;;;;;;;5178026;27;20025;-71
2023/10/08 07:22:28;;;;;;;25.65;7.93;;;;;;;;;;5162990;27;20022;-72
2023/10/08 07:25:15;;;;;;;18.30;7.20;;;;;;;;;;5177880;27;20513;-73
2023/10/08 07:28:04;;;;;;;20.65;6.97;;;;;;;;;;5177959;27;20031;-72
2023/10/08 07:30:49;;;;;;;43.88;8.98;;;;;;;;;;5176398;27;20022;-73
2023/10/08 07:33:36;;;;;;;27.20;6.90;;;;;;;;;;5177460;27;20109;-73
2023/10/08 07:36:26;;;;;;;33.00;7.45;;;;;;;;;;5177866;27;20333;-73
2023/10/08 07:39:58;;;;;;;32.72;7.55;;;;;;;;;;5176825;27;20028;-72
2023/10/08 07:42:17;;;;;;;45.65;8.00;;;;;;;;;;5175335;27;20328;-73
2023/10/08 07:45:04;;;;;;;16.95;6.60;;;;;;;;;;5177473;27;20352;-72
2023/10/08 07:47:50;;;;;;;24.38;6.55;;;;;;;;;;5176130;27;20075;-72
2023/10/08 07:50:40;;;;;;;20.40;7.50;;;;;;;;;;5136087;27;20058;-72
2023/10/08 07:53:37;;;;;;;43.88;8.40;;;;;;;;;;5136332;27;20023;-72
2023/10/08 07:56:23;;;;;;;20.13;7.43;;;;;;;;;;5135365;27;20334;-72
2023/10/08 07:59:09;;;;;;;31.25;7.03;;;;;;;;;;5135927;27;20020;-73
2023/10/08 08:01:55;;;;;;;24.42;7.10;;;;;;;;;;5149328;27;20463;-72
2023/10/08 08:04:43;;;;;;;16.35;7.15;;;;;;;;;;5135344;27;20019;-73
2023/10/08 08:07:29;;;;;;;32.75;7.38;;;;;;;;;;5136368;27;20460;-72
2023/10/08 08:10:15;;;;;;;33.55;7.70;;;;;;;;;;5135566;27;20031;-73
2023/10/08 08:13:01;;;;;;;19.95;6.97;;;;;;;;;;5135349;27;20445;-71
2023/10/08 08:15:50;;;;;;;15.50;6.97;;;;;;;;;;5135425;27;20034;-72
2023/10/08 08:18:37;;;;;;;24.63;7.40;;;;;;;;;;5135381;27;20042;-73
2023/10/08 08:21:23;;;;;;;18.27;6.68;;;;;;;;;;5135216;27;20026;-72
2023/10/08 08:24:09;;;;;;;15.68;6.85;;;;;;;;;;5135803;27;20037;-72
2023/10/08 08:27:07;;;;;;;34.60;9.93;;;;;;;;;;5135852;27;20058;-72
2023/10/08 08:29:56;;;;;;;20.80;7.22;;;;;;;;;;5135058;27;20025;-72
2023/10/08 08:32:47;;;;;;;30.92;7.88;;;;;;;;;;5134760;27;20409;-73
2023/10/08 08:35:33;;;;;;;26.33;8.75;;;;;;;;;;5135631;27;20019;-72
2023/10/08 08:38:21;;;;;;;19.52;8.60;;;;;;;;;;5135413;27;20024;-73
2023/10/08 08:41:07;;;;;;;23.38;10.05;;;;;;;;;;5134286;27;20015;-73
2023/10/08 08:43:58;;;;;;;21.38;8.30;;;;;;;;;;5133978;27;20346;-72
2023/10/08 08:46:45;;;;;;;30.85;8.68;;;;;;;;;;5134401;27;20022;-72
2023/10/08 08:49:37;;;;;;;18.33;7.32;;;;;;;;;;5159623;27;20102;-72
2023/10/08 08:52:22;;;;;;;42.53;8.75;;;;;;;;;;5175920;27;20044;-73
2023/10/08 08:55:14;;;;;;;19.92;8.15;;;;;;;;;;5161209;27;20610;-73
2023/10/08 08:58:01;;;;;;;19.63;7.85;;;;;;;;;;5174448;27;20124;-73
2023/10/08 09:00:47;;;;;;;28.67;8.77;;;;;;;;;;5175557;27;20018;-73
2023/10/08 09:03:32;;;;;;;19.88;10.35;;;;;;;;;;5175350;27;20397;-72
2023/10/08 09:06:18;;;;;;;18.90;7.32;;;;;;;;;;5176755;27;20022;-73
2023/10/08 09:09:22;;;;;;;19.17;7.93;;;;;;;;;;5161451;27;20019;-72
2023/10/08 09:12:10;;;;;;;19.10;8.32;;;;;;;;;;5175521;27;20019;-72
2023/10/08 09:15:02;;;;;;;24.13;10.07;;;;;;;;;;5160560;27;20018;-73
2023/10/08 09:17:48;;;;;;;24.27;8.38;;;;;;;;;;5160934;27;20025;-72
2023/10/08 09:20:47;;;;;;;19.23;7.93;;;;;;;;;;5160743;27;20355;-73
2023/10/08 09:23:36;;;;;;;35.15;8.95;;;;;;;;;;5175787;27;20033;-74
2023/10/08 09:26:23;;;;;;;20.90;8.88;;;;;;;;;;5161156;27;20097;-73
2023/10/08 09:29:11;;;;;;;41.17;8.75;;;;;;;;;;5161138;27;20316;-71
2023/10/08 09:31:57;;;;;;;29.40;9.13;;;;;;;;;;5175828;27;20033;-72
2023/10/08 09:34:43;;;;;;;35.10;10.02;;;;;;;;;;5179226;27;20029;-72
2023/10/08 09:37:29;;;;;;;21.10;7.22;;;;;;;;;;5194863;27;20018;-72
2023/10/08 09:40:20;;;;;;;17.98;6.47;;;;;;;;;;5177115;27;20043;-73
2023/10/08 09:43:08;;;;;;;22.45;6.43;;;;;;;;;;5192863;27;20015;-70
2023/10/08 09:46:14;;;;;;;32.22;11.05;;;;;;;;;;5178503;27;20026;-70
2023/10/08 09:49:01;;;;;;;32.47;13.45;;;;;;;;;;5190952;27;20055;-70
2023/10/08 09:51:47;;;;;;;28.98;12.13;;;;;;;;;;5175634;27;20019;-72
2023/10/08 09:54:53;;;;;;;40.20;11.35;;;;;;;;;;5176180;27;20022;-73
2023/10/08 09:57:39;;;;;;;25.25;10.15;;;;;;;;;;5160692;27;20336;-72
2023/10/08 10:00:34;;;;;;;42.20;14.27;;;;;;;;;;5174979;27;20029;-72
2023/10/08 10:03:22;;;;;;;28.45;12.13;;;;;;;;;;5160122;27;20018;-72
2023/10/08 10:06:11;;;;;;;35.05;15.70;;;;;;;;;;5175605;27;20454;-73
2023/10/08 10:08:59;;;;;;;34.58;14.55;;;;;;;;;;5176632;27;20026;-72
2023/10/08 10:11:49;;;;;;;25.23;11.25;;;;;;;;;;5180628;27;20086;-72
2023/10/08 10:14:55;;;;;;;23.65;9.48;;;;;;;;;;5183432;27;20097;-72
2023/10/08 10:17:40;;;;;;;32.15;8.00;;;;;;;;;;5168904;27;20477;-72
2023/10/08 10:20:27;;;;;;;23.90;8.18;;;;;;;;;;5180113;27;20557;-71
2023/10/08 10:23:33;;;;;;;34.00;15.23;;;;;;;;;;5166804;27;20045;-71
2023/10/08 10:26:33;;;;;;;33.40;16.77;;;;;;;;;;5182956;27;20015;-73
2023/10/08 10:29:20;;;;;;;34.88;14.55;;;;;;;;;;5166172;27;20010;-72
2023/10/08 10:32:05;;;;;;;60.35;16.40;;;;;;;;;;5181927;27;20029;-73
2023/10/08 10:34:52;;;;;;;29.67;10.18;;;;;;;;;;5182095;27;20032;-71
2023/10/08 10:37:41;;;;;;;26.90;6.57;;;;;;;;;;5167367;27;20019;-72
2023/10/08 10:40:39;;;;;;;38.55;6.47;;;;;;;;;;5179688;27;20078;-72
2023/10/08 10:43:32;;;;;;;27.10;4.63;;;;;;;;;;5182899;27;20018;-72
2023/10/08 10:46:30;;;;;;;32.25;4.95;;;;;;;;;;5182991;27;20021;-73
2023/10/08 10:49:30;;;;;;;27.52;5.07;;;;;;;;;;5170054;27;20064;-73
2023/10/08 10:52:31;;;;;;;26.92;4.72;;;;;;;;;;5165174;27;20097;-72
2023/10/08 10:58:04;;;;;;;12.80;3.95;;;;;;;;;;5178669;27;20018;-73
2023/10/08 11:00:57;;;;;;;28.55;4.57;;;;;;;;;;5177865;27;20352;-72
2023/10/08 11:03:43;;;;;;;23.02;5.10;;;;;;;;;;5164481;27;20014;-72
2023/10/08 11:06:33;;;;;;;32.70;5.35;;;;;;;;;;5179787;27;20018;-72
2023/10/08 11:09:35;;;;;;;30.13;5.50;;;;;;;;;;5179139;27;20471;-73
2023/10/08 11:12:32;;;;;;;23.77;4.25;;;;;;;;;;5179171;27;20285;-73
2023/10/08 11:15:17;;;;;;;60.97;7.88;;;;;;;;;;5182094;27;20351;-73
2023/10/08 11:18:08;;;;;;;59.15;7.18;;;;;;;;;;5181068;27;20075;-72
2023/10/08 11:21:13;;;;;;;27.52;5.07;;;;;;;;;;5179066;27;20029;-71
2023/10/08 11:24:01;;;;;;;23.15;4.90;;;;;;;;;;5164571;27;20063;-72
2023/10/08 11:27:02;;;;;;;21.27;5.15;;;;;;;;;;5181374;27;20052;-71
2023/10/08 11:29:53;;;;;;;18.85;4.93;;;;;;;;;;5179950;27;20030;-73
2023/10/08 11:32:41;;;;;;;32.97;5.90;;;;;;;;;;5180895;27;20194;-73
2023/10/08 11:35:33;;;;;;;35.53;5.53;;;;;;;;;;5179724;27;20026;-72
2023/10/08 11:38:22;;;;;;;33.65;5.10;;;;;;;;;;5168616;27;20046;-71
2023/10/08 11:41:23;;;;;;;29.42;5.30;;;;;;;;;;5180327;27;20109;-73
2023/10/08 11:44:13;;;;;;;45.28;5.90;;;;;;;;;;5164495;27;20079;-72
2023/10/08 11:47:09;;;;;;;62.08;7.20;;;;;;;;;;5165571;27;20110;-73
2023/10/08 11:50:09;;;;;;;32.00;4.57;;;;;;;;;;5178541;27;20038;-73
2023/10/08 11:53:01;;;;;;;110.45;10.02;;;;;;;;;;5181854;27;20022;-71
2023/10/08 11:55:47;;;;;;;35.17;5.43;;;;;;;;;;5178008;27;20101;-73
2023/10/08 11:58:37;;;;;;;36.17;5.22;;;;;;;;;;5177295;27;20030;-72
2023/10/08 12:01:23;;;;;;;39.80;4.90;;;;;;;;;;5177312;27;20176;-73
2023/10/08 12:04:15;;;;;;;25.23;4.43;;;;;;;;;;5164019;27;20081;-72
2023/10/08 12:07:07;;;;;;;57.47;6.10;;;;;;;;;;5177506;27;20340;-72
2023/10/08 12:09:54;;;;;;;38.78;5.18;;;;;;;;;;5176593;27;20508;-72
2023/10/08 12:12:40;;;;;;;43.53;6.07;;;;;;;;;;5178313;27;20109;-72
2023/10/08 12:15:38;;;;;;;27.80;5.05;;;;;;;;;;5178038;27;20029;-73
2023/10/08 12:18:26;;;;;;;41.08;5.25;;;;;;;;;;5177157;27;20332;-71
2023/10/08 12:21:15;;;;;;;90.28;8.98;;;;;;;;;;5161637;27;20025;-74
2023/10/08 12:24:05;;;;;;;26.00;5.50;;;;;;;;;;5175614;27;20018;-73
2023/10/08 12:26:51;;;;;;;52.05;19.15;;;;;;;;;;5176502;27;20026;-72
2023/10/08 12:29:38;;;;;;;25.50;5.70;;;;;;;;;;5161550;27;20034;-73
2023/10/08 12:32:26;;;;;;;32.22;5.18;;;;;;;;;;5174824;27;20022;-73
2023/10/08 12:35:14;;;;;;;68.05;6.97;;;;;;;;;;5176992;27;20053;-72
2023/10/08 12:38:00;;;;;;;66.65;7.38;;;;;;;;;;5161414;27;20022;-71
2023/10/08 12:40:52;;;;;;;36.45;5.47;;;;;;;;;;5161153;27;20083;-72
2023/10/08 12:43:45;;;;;;;28.50;4.53;;;;;;;;;;5160719;27;20033;-72
2023/10/08 12:46:33;;;;;;;27.73;4.57;;;;;;;;;;5176249;27;20032;-72
2023/10/08 12:49:21;;;;;;;45.20;5.50;;;;;;;;;;5160249;27;20049;-72
2023/10/08 12:52:08;;;;;;;21.05;4.28;;;;;;;;;;5160264;27;20052;-73
2023/10/08 12:54:55;;;;;;;19.42;4.70;;;;;;;;;;5176785;27;20032;-73
2023/10/08 12:57:42;;;;;;;24.92;4.88;;;;;;;;;;5176307;27;20029;-73
2023/10/08 13:00:27;;;;;;;26.52;4.80;;;;;;;;;;5176750;27;20041;-73
2023/10/08 13:03:22;;;;;;;31.40;5.38;;;;;;;;;;5175432;27;20512;-72
2023/10/08 13:06:14;;;;;;;31.77;5.13;;;;;;;;;;5176941;27;20483;-73
2023/10/08 13:09:00;;;;;;;21.10;4.15;;;;;;;;;;5175372;27;20105;-71
2023/10/08 13:11:46;;;;;;;25.10;4.45;;;;;;;;;;5176069;27;20037;-73
2023/10/08 13:14:34;;;;;;;20.17;4.07;;;;;;;;;;5175613;27;20448;-74
2023/10/08 13:17:20;;;;;;;24.70;4.35;;;;;;;;;;5176144;27;20443;-72
2023/10/08 13:20:11;;;;;;;17.27;4.93;;;;;;;;;;5176401;27;20110;-72
2023/10/08 13:22:57;;;;;;;20.85;4.47;;;;;;;;;;5160964;27;20495;-73
2023/10/08 13:25:42;;;;;;;23.70;4.80;;;;;;;;;;5160850;27;20033;-73
2023/10/08 13:28:28;;;;;;;19.67;4.45;;;;;;;;;;5175123;27;20066;-73
2023/10/08 13:31:16;;;;;;;26.45;4.18;;;;;;;;;;5176515;27;20045;-72
2023/10/08 13:34:03;;;;;;;20.10;3.90;;;;;;;;;;5175596;27;20022;-72
2023/10/08 13:36:49;;;;;;;26.85;4.03;;;;;;;;;;5160506;27;20420;-72
2023/10/08 13:39:35;;;;;;;23.75;4.60;;;;;;;;;;5176307;27;20155;-73
2023/10/08 13:42:20;;;;;;;17.30;3.90;;;;;;;;;;5160355;27;20014;-73
2023/10/08 13:45:08;;;;;;;16.77;3.92;;;;;;;;;;5178723;27;20014;-72
2023/10/08 13:47:56;;;;;;;14.85;3.95;;;;;;;;;;5179970;27;20022;-73
2023/10/08 13:50:43;;;;;;;15.77;4.30;;;;;;;;;;5179864;27;20073;-73
2023/10/08 13:53:30;;;;;;;16.40;4.50;;;;;;;;;;5179125;27;20074;-73
2023/10/08 13:56:18;;;;;;;17.02;3.88;;;;;;;;;;5179878;27;20014;-73
2023/10/08 13:59:13;;;;;;;15.90;3.90;;;;;;;;;;5181240;27;20456;-70
2023/10/08 14:02:01;;;;;;;18.48;3.88;;;;;;;;;;5179688;27;20023;-72
2023/10/08 14:04:50;;;;;;;20.98;4.63;;;;;;;;;;5178331;27;20101;-71
2023/10/08 14:07:35;;;;;;;16.52;3.95;;;;;;;;;;5181801;27;20148;-73
2023/10/08 14:10:29;;;;;;;16.98;4.40;;;;;;;;;;5183010;27;20046;-73
2023/10/08 14:13:19;;;;;;;20.00;3.90;;;;;;;;;;5164473;27;20033;-72
2023/10/08 14:16:08;;;;;;;16.33;4.05;;;;;;;;;;5179069;27;20034;-72
2023/10/08 14:18:54;;;;;;;18.98;4.45;;;;;;;;;;5179074;27;20114;-72
2023/10/08 14:21:53;;;;;;;20.98;4.38;;;;;;;;;;5178393;27;20029;-71
2023/10/08 14:24:39;;;;;;;22.67;4.50;;;;;;;;;;5164974;27;20495;-72
2023/10/08 14:27:39;;;;;;;18.30;4.20;;;;;;;;;;5178939;27;20038;-73
2023/10/08 14:30:25;;;;;;;17.90;3.95;;;;;;;;;;5178189;27;20050;-71
2023/10/08 14:33:23;;;;;;;17.50;4.18;;;;;;;;;;5179403;27;20018;-71
2023/10/08 14:45:25;;;;;;;16.73;3.95;;;;;;;;;;5171668;27;20015;-69
2023/10/08 14:48:13;;;;;;;16.05;3.85;;;;;;;;;;5156586;27;20022;-71
2023/10/08 14:50:59;;;;;;;18.30;4.00;;;;;;;;;;5167822;27;20021;-70
2023/10/08 14:53:44;;;;;;;21.10;4.05;;;;;;;;;;5178089;27;20520;-70
2023/10/08 14:56:32;;;;;;;21.50;4.45;;;;;;;;;;5177571;27;20038;-71
2023/10/08 14:59:18;;;;;;;16.95;3.95;;;;;;;;;;5178959;27;20018;-71
2023/10/08 15:02:04;;;;;;;18.00;4.18;;;;;;;;;;5177372;27;20113;-71
2023/10/08 15:04:50;;;;;;;13.23;3.85;;;;;;;;;;5163872;27;20067;-71
2023/10/08 15:07:37;;;;;;;12.98;3.95;;;;;;;;;;5177446;27;20371;-71
2023/10/08 15:10:22;;;;;;;15.23;4.32;;;;;;;;;;5178357;27;20086;-72
2023/10/08 15:13:08;;;;;;;13.82;3.60;;;;;;;;;;5161292;27;20101;-71
2023/10/08 15:15:54;;;;;;;18.45;3.80;;;;;;;;;;5178531;27;20454;-71
2023/10/08 15:18:42;;;;;;;11.55;3.67;;;;;;;;;;5163305;27;20054;-71
2023/10/08 15:21:27;;;;;;;11.10;3.53;;;;;;;;;;5177582;27;20015;-71
2023/10/08 15:24:13;;;;;;;18.17;3.53;;;;;;;;;;5177620;27;20014;-71
2023/10/08 15:27:00;;;;;;;17.90;4.10;;;;;;;;;;5156094;27;20093;-71
2023/10/08 15:29:45;;;;;;;17.27;4.22;;;;;;;;;;5151038;27;20087;-71
2023/10/08 15:32:31;;;;;;;16.30;3.72;;;;;;;;;;5157209;27;20014;-71
2023/10/08 15:35:23;;;;;;;10.63;3.55;;;;;;;;;;5146623;27;20461;-70
2023/10/08 15:38:09;;;;;;;13.07;3.85;;;;;;;;;;5175911;27;20167;-70
2023/10/08 15:40:55;;;;;;;18.48;4.22;;;;;;;;;;5155917;27;20026;-70
2023/10/08 15:43:44;;;;;;;13.18;3.25;;;;;;;;;;5156282;27;20019;-69
2023/10/08 15:46:30;;;;;;;16.73;3.83;;;;;;;;;;5141492;27;20019;-71
2023/10/08 15:49:17;;;;;;;10.70;3.30;;;;;;;;;;5156419;27;20376;-71
2023/10/08 15:52:03;;;;;;;17.08;3.70;;;;;;;;;;5156190;27;20029;-71
2023/10/08 15:54:49;;;;;;;13.13;3.45;;;;;;;;;;5156370;27;20019;-72
2023/10/08 15:57:35;;;;;;;15.82;3.25;;;;;;;;;;5140512;27;20079;-72
2023/10/08 16:00:20;;;;;;;11.27;2.90;;;;;;;;;;5156461;27;20109;-71
2023/10/08 16:03:06;;;;;;;13.18;3.17;;;;;;;;;;5154725;27;20018;-70
2023/10/08 16:05:52;;;;;;;15.90;2.85;;;;;;;;;;5156210;27;20101;-71
2023/10/08 16:08:37;;;;;;;18.70;3.13;;;;;;;;;;5155359;27;20027;-71
2023/10/08 16:11:23;;;;;;;15.70;2.85;;;;;;;;;;5155631;27;20027;-71
2023/10/08 16:14:09;;;;;;;11.63;3.15;;;;;;;;;;5154305;27;20030;-71
2023/10/08 16:16:54;;;;;;;49.03;7.45;;;;;;;;;;5154836;27;20515;-73
2023/10/08 16:19:40;;;;;;;93.82;9.43;;;;;;;;;;5156416;27;20033;-72
2023/10/08 16:22:26;;;;;;;82.20;7.82;;;;;;;;;;5156513;27;20019;-72
2023/10/08 16:25:15;;;;;;;119.85;8.23;;;;;;;;;;5155857;27;20015;-70
2023/10/08 16:28:00;;;;;;;47.08;5.97;;;;;;;;;;5140498;27;20015;-71
2023/10/08 16:30:51;;;;;;;56.22;7.50;;;;;;;;;;5155123;27;20352;-71
2023/10/08 16:33:37;;;;;;;54.15;6.10;;;;;;;;;;5166712;27;20354;-73
2023/10/08 16:36:23;;;;;;;46.17;5.60;;;;;;;;;;5176138;27;20074;-72
2023/10/08 16:39:10;;;;;;;63.88;5.22;;;;;;;;;;5175024;27;20022;-71
2023/10/08 16:41:57;;;;;;;39.80;3.97;;;;;;;;;;5175952;27;20041;-72
2023/10/08 16:44:42;;;;;;;28.20;2.70;;;;;;;;;;5175775;27;20018;-73
2023/10/08 16:47:28;;;;;;;20.63;2.85;;;;;;;;;;5175676;27;20163;-72
2023/10/08 16:50:14;;;;;;;25.23;3.08;;;;;;;;;;5175407;27;20365;-71
2023/10/08 16:53:00;;;;;;;26.65;3.40;;;;;;;;;;5175828;27;20088;-70
2023/10/08 16:55:46;;;;;;;25.63;2.88;;;;;;;;;;5175811;27;20037;-69
2023/10/08 16:58:31;;;;;;;21.05;2.80;;;;;;;;;;5175875;27;20030;-70
2023/10/08 17:01:17;;;;;;;34.97;4.25;;;;;;;;;;5175365;27;20010;-71
2023/10/08 17:04:05;;;;;;;14.40;2.55;;;;;;;;;;5175133;27;20057;-71
2023/10/08 17:06:51;;;;;;;28.23;2.80;;;;;;;;;;5160949;27;20010;-72
2023/10/08 17:09:37;;;;;;;17.73;2.63;;;;;;;;;;5161398;27;20047;-73
2023/10/08 17:12:23;;;;;;;36.65;3.13;;;;;;;;;;5174567;27;20110;-73
2023/10/08 17:15:10;;;;;;;14.13;2.47;;;;;;;;;;5175508;27;20032;-72
2023/10/08 17:17:55;;;;;;;18.30;2.78;;;;;;;;;;5175660;27;20122;-72
2023/10/08 17:20:41;;;;;;;37.40;3.10;;;;;;;;;;5179561;27;20019;-72
2023/10/08 17:23:27;;;;;;;32.25;2.65;;;;;;;;;;5181079;27;20549;-73
2023/10/08 17:26:13;;;;;;;14.98;2.60;;;;;;;;;;5164561;27;20033;-73
2023/10/08 17:29:00;;;;;;;13.85;2.50;;;;;;;;;;5164757;27;20018;-73
2023/10/08 17:31:48;;;;;;;20.33;2.33;;;;;;;;;;5179350;27;20033;-73